Time;durP1;ratioP1;P1;durP2;ratioP2;P2;SDS_P1;SDS_P2;PMS_P1;PMS_P2;Temp;Humidity;BMP_temperature;BMP_pressure;BME280_temperature;BME280_humidity;BME280_pressure;Samples;Min_cycle;Max_cycle;Signal;HPM_P1;HPM_P2
2021/08/24 00:01:22;;;;;;;;;;;;;;;26.29;26.71;99383.03;5109502;28;20410;-74
2021/08/24 00:03:48;;;;;;;;;;;;;;;26.27;26.90;99385.16;5109756;28;19924;-74
2021/08/24 00:06:14;;;;;;;;;;;;;;;26.24;26.74;99385.59;5109374;28;19931;-74
2021/08/24 00:08:41;;;;;;;;;;;;;;;26.24;26.93;99388.34;5092516;28;19931;-74
2021/08/24 00:11:07;;;;;;;;;;;;;;;26.28;26.73;99386.81;5092564;28;19934;-75
2021/08/24 00:13:33;;;;;;;;;;;;;;;26.30;26.91;99389.34;5109195;28;19967;-75
2021/08/24 00:15:58;;;;;;;;;;;;;;;26.25;27.13;99389.16;5075401;28;20354;-75
2021/08/24 00:18:24;;;;;;;;;;;;;;;26.22;27.17;99386.91;5109268;28;19991;-74
2021/08/24 00:20:51;;;;;;;;;;;;;;;26.21;27.26;99387.94;5075345;28;19947;-75
2021/08/24 00:23:17;;;;;;;;;;;;;;;26.20;27.27;99391.75;5109203;28;19946;-75
2021/08/24 00:25:43;;;;;;;;;;;;;;;26.21;27.13;99386.03;5092085;28;19924;-74
2021/08/24 00:28:09;;;;;;;;;;;;;;;26.21;27.27;99393.41;5092351;28;19930;-75
2021/08/24 00:30:35;;;;;;;;;;;;;;;26.22;27.13;99386.91;5110019;28;19924;-73
2021/08/24 00:33:01;;;;;;;;;;;;;;;26.23;27.12;99397.63;5075431;28;20405;-75
2021/08/24 00:35:27;;;;;;;;;;;;;;;26.20;27.31;99389.84;5091575;28;20026;-75
2021/08/24 00:37:52;;;;;;;;;;;;;;;26.13;27.13;99383.56;5109115;28;20038;-75
2021/08/24 00:40:18;;;;;;;;;;;;;;;26.17;27.27;99393.03;5091745;28;20386;-75
2021/08/24 00:42:44;;;;;;;;;;;;;;;26.08;27.53;99387.00;5108900;28;19982;-75
2021/08/24 00:45:10;;;;;;;;;;;;;;;26.08;27.22;99397.13;5091476;28;19924;-75
2021/08/24 00:47:36;;;;;;;;;;;;;;;26.07;27.29;99396.28;5066073;28;20371;-75
2021/08/24 00:50:05;;;;;;;;;;;;;;;26.04;27.44;99390.41;5078541;28;19923;-75
2021/08/24 00:52:31;;;;;;;;;;;;;;;26.02;27.53;99392.50;5078181;28;19924;-75
2021/08/24 00:54:57;;;;;;;;;;;;;;;25.99;27.66;99398.44;5077867;28;20030;-75
2021/08/24 00:57:23;;;;;;;;;;;;;;;25.92;27.76;99399.31;5094777;28;20349;-74
2021/08/24 00:59:49;;;;;;;;;;;;;;;25.89;28.04;99397.03;5077946;28;19931;-75
2021/08/24 01:02:15;;;;;;;;;;;;;;;25.91;27.83;99392.19;5078310;28;20009;-75
2021/08/24 01:04:41;;;;;;;;;;;;;;;25.91;27.65;99388.56;5077792;28;20339;-74
2021/08/24 01:07:10;;;;;;;;;;;;;;;25.93;27.85;99400.16;5061131;28;19947;-76
2021/08/24 01:09:44;;;;;;;;;;;;;;;25.90;27.88;99404.19;5077900;28;19935;-74
2021/08/24 01:12:23;;;;;;;;;;;;;;;25.86;28.11;99400.19;5078484;28;19947;-75
2021/08/24 01:15:07;;;;;;;;;;;;;;;25.86;28.00;99405.69;5094843;28;19924;-75
2021/08/24 01:17:36;;;;;;;;;;;;;;;25.78;28.23;99402.34;5094711;28;19923;-75
2021/08/24 01:20:17;;;;;;;;;;;;;;;25.84;28.13;99402.34;5079213;28;19939;-75
2021/08/24 01:23:02;;;;;;;;;;;;;;;25.85;28.26;99403.19;5077510;28;20004;-74
2021/08/24 01:25:33;;;;;;;;;;;;;;;25.84;28.01;99402.34;5077361;28;20023;-75
2021/08/24 01:28:04;;;;;;;;;;;;;;;25.86;28.18;99408.41;5060910;28;19946;-75
2021/08/24 01:30:48;;;;;;;;;;;;;;;25.86;28.16;99411.16;5044859;28;20346;-75
2021/08/24 01:33:33;;;;;;;;;;;;;;;25.84;28.19;99413.28;5077187;28;20379;-74
2021/08/24 01:36:28;;;;;;;;;;;;;;;25.83;28.24;99422.53;5076730;28;19928;-75
2021/08/24 01:39:01;;;;;;;;;;;;;;;25.89;28.24;99415.38;5068451;28;19924;-75
2021/08/24 01:41:31;;;;;;;;;;;;;;;25.91;28.20;99419.56;5044106;28;19931;-74
2021/08/24 01:44:07;;;;;;;;;;;;;;;25.90;28.25;99412.38;5094260;28;19931;-75
2021/08/24 01:46:32;;;;;;;;;;;;;;;25.94;28.23;99422.91;5060621;28;19931;-75
2021/08/24 01:48:59;;;;;;;;;;;;;;;25.94;28.07;99421.00;5060359;28;19924;-75
2021/08/24 01:51:25;;;;;;;;;;;;;;;26.04;28.23;99429.59;5060671;28;19924;-75
2021/08/24 01:54:00;;;;;;;;;;;;;;;26.09;27.88;99431.66;5076673;28;20041;-76
2021/08/24 01:56:28;;;;;;;;;;;;;;;26.13;27.95;99432.88;5076956;28;19928;-74
2021/08/24 01:59:01;;;;;;;;;;;;;;;26.20;27.91;99417.25;5059992;28;20045;-75
2021/08/24 02:01:30;;;;;;;;;;;;;;;26.24;27.73;99421.22;5093780;28;19946;-74
2021/08/24 02:03:56;;;;;;;;;;;;;;;26.30;27.94;99424.97;5076707;28;19935;-76
2021/08/24 02:06:25;;;;;;;;;;;;;;;26.37;27.78;99423.03;5076735;28;20325;-75
2021/08/24 02:08:52;;;;;;;;;;;;;;;26.46;27.75;99423.59;5076732;28;20427;-75
2021/08/24 02:11:17;;;;;;;;;;;;;;;26.58;27.75;99424.56;5059949;28;19924;-74
2021/08/24 02:13:44;;;;;;;;;;;;;;;26.64;27.52;99426.41;5076875;28;19942;-76
2021/08/24 02:16:11;;;;;;;;;;;;;;;26.71;27.46;99431.84;5076652;28;19974;-76
2021/08/24 02:18:37;;;;;;;;;;;;;;;26.76;27.53;99421.84;5076246;28;19935;-75
2021/08/24 02:21:05;;;;;;;;;;;;;;;26.80;27.34;99428.56;5092988;28;19931;-75
2021/08/24 02:23:30;;;;;;;;;;;;;;;26.80;27.41;99431.28;5076597;28;20453;-74
2021/08/24 02:25:57;;;;;;;;;;;;;;;26.88;27.30;99432.91;5076180;28;20026;-75
2021/08/24 02:28:29;;;;;;;;;;;;;;;26.99;27.19;99432.16;5076375;28;19959;-75
2021/08/24 02:30:59;;;;;;;;;;;;;;;27.06;27.13;99437.59;5073583;28;19938;-75
2021/08/24 02:33:25;;;;;;;;;;;;;;;27.13;27.00;99432.91;5060868;28;19925;-75
2021/08/24 02:35:51;;;;;;;;;;;;;;;27.11;27.07;99440.50;5092152;28;20009;-75
2021/08/24 02:38:26;;;;;;;;;;;;;;;27.22;26.98;99441.66;5072438;28;19930;-75
2021/08/24 02:40:55;;;;;;;;;;;;;;;27.22;27.11;99437.00;5055918;28;20337;-74
2021/08/24 02:43:23;;;;;;;;;;;;;;;27.35;27.06;99436.03;5055594;28;19947;-74
2021/08/24 02:46:13;;;;;;;;;;;;;;;27.53;26.79;99432.41;5072117;28;19928;-75
2021/08/24 02:48:39;;;;;;;;;;;;;;;27.65;26.79;99436.06;5066568;28;20014;-75
2021/08/24 02:51:04;;;;;;;;;;;;;;;27.75;26.61;99436.34;5055696;28;20019;-74
2021/08/24 02:53:33;;;;;;;;;;;;;;;27.75;26.61;99435.53;5056139;28;20023;-75
2021/08/24 02:55:59;;;;;;;;;;;;;;;27.72;26.74;99438.69;5055987;28;19925;-74
2021/08/24 02:58:25;;;;;;;;;;;;;;;27.76;26.63;99440.81;5055635;28;19924;-75
2021/08/24 03:00:51;;;;;;;;;;;;;;;27.74;26.85;99434.69;5072108;28;20456;-74
2021/08/24 03:03:17;;;;;;;;;;;;;;;27.70;26.81;99441.69;5055558;28;19932;-77
2021/08/24 03:05:43;;;;;;;;;;;;;;;27.75;26.93;99441.84;5038900;28;19972;-75
2021/08/24 03:08:09;;;;;;;;;;;;;;;27.90;26.83;99432.34;5038870;28;19931;-74
2021/08/24 03:10:35;;;;;;;;;;;;;;;27.88;26.82;99440.00;5055173;28;19946;-75
2021/08/24 03:13:00;;;;;;;;;;;;;;;27.89;27.05;99447.16;5072076;28;19924;-79
2021/08/24 03:15:47;;;;;;;;;;;;;;;27.97;26.99;99436.69;5038690;28;19935;-75
2021/08/24 03:18:26;;;;;;;;;;;;;;;28.13;26.70;99437.91;5061556;28;19936;-74
2021/08/24 03:20:55;;;;;;;;;;;;;;;28.08;26.78;99441.38;5038920;28;19974;-76
2021/08/24 03:23:21;;;;;;;;;;;;;;;28.09;26.87;99433.97;5022337;28;19924;-80
2021/08/24 03:25:47;;;;;;;;;;;;;;;28.19;26.76;99442.50;5055413;28;20042;-76
2021/08/24 03:28:14;;;;;;;;;;;;;;;28.21;26.87;99443.09;5039414;28;20351;-75
2021/08/24 03:30:39;;;;;;;;;;;;;;;28.12;26.84;99447.25;5055741;28;19924;-76
2021/08/24 03:33:05;;;;;;;;;;;;;;;28.08;27.00;99452.38;5055121;28;19974;-78
2021/08/24 03:35:31;;;;;;;;;;;;;;;28.11;27.04;99445.56;5038235;28;20370;-77
2021/08/24 03:37:56;;;;;;;;;;;;;;;28.19;27.17;99447.97;5072126;28;19978;-78
2021/08/24 03:40:22;;;;;;;;;;;;;;;28.27;27.03;99453.13;5039233;28;19921;-76
2021/08/24 03:42:48;;;;;;;;;;;;;;;28.28;27.02;99457.59;5038618;28;19924;-74
2021/08/24 03:45:14;;;;;;;;;;;;;;;28.29;27.09;99448.25;5072990;28;19920;-75
2021/08/24 03:47:39;;;;;;;;;;;;;;;28.42;26.94;99451.88;5038887;28;19924;-78
2021/08/24 03:50:05;;;;;;;;;;;;;;;28.52;26.92;99455.75;5038050;28;19920;-74
2021/08/24 03:52:31;;;;;;;;;;;;;;;28.40;27.21;99465.03;5038488;28;20034;-77
2021/08/24 03:54:57;;;;;;;;;;;;;;;28.50;27.33;99466.13;5047643;28;19927;-75
2021/08/24 03:57:23;;;;;;;;;;;;;;;28.58;27.24;99461.34;5081001;28;19925;-76
2021/08/24 03:59:48;;;;;;;;;;;;;;;28.60;27.36;99460.06;5038315;28;20369;-75
2021/08/24 04:02:15;;;;;;;;;;;;;;;28.69;27.42;99457.78;5055276;28;19925;-76
2021/08/24 04:04:41;;;;;;;;;;;;;;;28.77;27.31;99458.28;5071697;28;19924;-80
2021/08/24 04:07:07;;;;;;;;;;;;;;;28.85;27.41;99461.72;5038794;28;19928;-78
2021/08/24 04:09:33;;;;;;;;;;;;;;;28.95;27.26;99467.47;5071437;28;20432;-75
2021/08/24 04:11:58;;;;;;;;;;;;;;;28.91;27.48;99455.28;5071777;28;19934;-78
2021/08/24 04:14:24;;;;;;;;;;;;;;;28.80;27.57;99455.03;5054941;28;19970;-77
2021/08/24 04:16:50;;;;;;;;;;;;;;;28.95;27.57;99462.81;5055995;28;19925;-78
2021/08/24 04:19:15;;;;;;;;;;;;;;;29.10;27.41;99458.75;5069519;28;20015;-78
2021/08/24 04:21:41;;;;;;;;;;;;;;;29.25;27.34;99456.34;5037507;28;20019;-80
2021/08/24 04:24:07;;;;;;;;;;;;;;;29.39;27.23;99456.94;5041629;28;19925;-77
2021/08/24 04:26:33;;;;;;;;;;;;;;;29.44;27.24;99460.63;5041482;28;19924;-77
2021/08/24 04:29:00;;;;;;;;;;;;;;;29.61;26.92;99463.50;5074096;28;20419;-77
2021/08/24 04:31:25;;;;;;;;;;;;;;;29.62;27.03;99461.56;5057568;28;19931;-77
2021/08/24 04:33:51;;;;;;;;;;;;;;;29.82;26.89;99467.47;5076376;28;20030;-77
2021/08/24 04:36:17;;;;;;;;;;;;;;;29.84;26.73;99453.47;5058127;28;19928;-79
2021/08/24 04:38:43;;;;;;;;;;;;;;;29.93;26.88;99458.31;5042045;28;19925;-77
2021/08/24 04:41:09;;;;;;;;;;;;;;;30.11;26.68;99460.03;5058765;28;20297;-75
2021/08/24 04:43:35;;;;;;;;;;;;;;;30.19;26.74;99458.84;5060032;28;19925;-77
2021/08/24 04:46:01;;;;;;;;;;;;;;;30.26;26.75;99461.44;5076476;28;19951;-76
2021/08/24 04:48:26;;;;;;;;;;;;;;;30.32;26.83;99455.78;5076412;28;19956;-78
2021/08/24 04:50:52;;;;;;;;;;;;;;;30.36;26.98;99464.38;5043207;28;20018;-77
2021/08/24 04:53:18;;;;;;;;;;;;;;;30.38;27.04;99462.19;5059426;28;19943;-77
2021/08/24 04:55:44;;;;;;;;;;;;;;;30.49;26.94;99458.53;5043314;28;19970;-77
2021/08/24 04:58:09;;;;;;;;;;;;;;;30.61;26.85;99459.28;5075464;28;20413;-76
2021/08/24 05:00:42;;;;;;;;;;;;;;;30.63;26.60;99448.84;5058488;28;19925;-76
2021/08/24 05:03:10;;;;;;;;;;;;;;;30.86;26.46;99460.81;5058229;28;19924;-77
2021/08/24 05:05:35;;;;;;;;;;;;;;;30.90;26.18;99457.28;5057841;28;19969;-76
2021/08/24 05:08:01;;;;;;;;;;;;;;;30.96;25.99;99452.69;5074725;28;19930;-75
2021/08/24 05:10:28;;;;;;;;;;;;;;;31.02;26.06;99453.59;5042001;28;20359;-77
2021/08/24 05:12:54;;;;;;;;;;;;;;;31.07;25.88;99451.75;5058182;28;19931;-77
2021/08/24 05:15:20;;;;;;;;;;;;;;;31.18;25.59;99461.84;5074627;28;19925;-77
2021/08/24 05:17:49;;;;;;;;;;;;;;;31.31;24.91;99452.38;5074187;28;20005;-77
2021/08/24 05:20:14;;;;;;;;;;;;;;;31.44;25.00;99456.69;5074239;28;19967;-77
2021/08/24 05:22:42;;;;;;;;;;;;;;;31.53;24.25;99455.16;5057631;28;19990;-77
2021/08/24 05:25:09;;;;;;;;;;;;;;;31.54;24.06;99455.97;5057945;28;20303;-75
2021/08/24 05:27:35;;;;;;;;;;;;;;;31.69;24.30;99459.75;5041008;28;19936;-77
2021/08/24 05:30:05;;;;;;;;;;;;;;;31.82;24.20;99452.16;5024487;28;20012;-77
2021/08/24 05:32:31;;;;;;;;;;;;;;;31.98;23.95;99454.03;5057077;28;19975;-77
2021/08/24 05:34:56;;;;;;;;;;;;;;;32.00;23.65;99451.00;5026223;28;19929;-77
2021/08/24 05:37:22;;;;;;;;;;;;;;;32.04;23.58;99461.28;5044377;28;19954;-76
2021/08/24 05:39:48;;;;;;;;;;;;;;;31.89;23.84;99447.28;5060403;28;19982;-78
2021/08/24 05:42:14;;;;;;;;;;;;;;;32.08;23.95;99456.94;5044159;28;19924;-77
2021/08/24 05:44:40;;;;;;;;;;;;;;;32.26;23.65;99457.63;5027153;28;20371;-77
2021/08/24 05:47:06;;;;;;;;;;;;;;;32.43;23.40;99455.63;5060361;28;20421;-77
2021/08/24 05:49:35;;;;;;;;;;;;;;;32.58;23.39;99463.22;5076623;28;19954;-75
2021/08/24 05:52:01;;;;;;;;;;;;;;;32.60;23.29;99458.22;5076934;28;19969;-76
2021/08/24 05:54:26;;;;;;;;;;;;;;;32.75;23.13;99454.75;5060345;28;19928;-77
2021/08/24 05:56:52;;;;;;;;;;;;;;;32.73;22.98;99456.97;5060370;28;19976;-76
2021/08/24 05:59:18;;;;;;;;;;;;;;;32.79;22.71;99461.41;5077049;28;20018;-77
2021/08/24 06:01:44;;;;;;;;;;;;;;;32.83;22.79;99454.25;5060164;28;19924;-77
2021/08/24 06:04:10;;;;;;;;;;;;;;;32.87;22.73;99452.63;5076542;28;20405;-76
2021/08/24 06:06:38;;;;;;;;;;;;;;;33.05;22.41;99454.97;5060060;28;19943;-76
2021/08/24 06:09:04;;;;;;;;;;;;;;;33.22;22.15;99459.53;5026742;28;19924;-75
2021/08/24 06:11:31;;;;;;;;;;;;;;;33.36;22.03;99458.78;5043098;28;19924;-77
2021/08/24 06:13:57;;;;;;;;;;;;;;;33.47;21.68;99456.91;5026509;28;20353;-76
2021/08/24 06:16:23;;;;;;;;;;;;;;;33.43;21.69;99455.75;5076211;28;19924;-77
2021/08/24 06:18:49;;;;;;;;;;;;;;;33.35;21.49;99453.50;5043494;28;19924;-76
2021/08/24 06:21:15;;;;;;;;;;;;;;;33.52;21.29;99448.63;5026428;28;19924;-76
2021/08/24 06:23:42;;;;;;;;;;;;;;;33.58;21.38;99449.47;5075428;28;20023;-77
2021/08/24 06:26:08;;;;;;;;;;;;;;;33.53;21.38;99455.81;5042766;28;20019;-77
2021/08/24 06:28:33;;;;;;;;;;;;;;;33.66;21.56;99451.69;5076122;28;20031;-77
2021/08/24 06:30:59;;;;;;;;;;;;;;;33.96;21.02;99453.72;5094147;28;19963;-77
2021/08/24 06:33:26;;;;;;;;;;;;;;;34.06;20.59;99447.41;5026989;28;19927;-77
2021/08/24 06:35:52;;;;;;;;;;;;;;;34.17;20.80;99443.56;5055639;28;20391;-75
2021/08/24 06:38:18;;;;;;;;;;;;;;;34.37;20.86;99453.81;5039418;28;19924;-77
2021/08/24 06:40:44;;;;;;;;;;;;;;;34.46;20.07;99440.25;5072536;28;19924;-77
2021/08/24 06:43:09;;;;;;;;;;;;;;;34.47;20.04;99447.47;5038768;28;20383;-76
2021/08/24 06:45:35;;;;;;;;;;;;;;;34.70;19.95;99446.09;5055422;28;19924;-77
2021/08/24 06:48:01;;;;;;;;;;;;;;;34.82;19.50;99432.75;5056091;28;20430;-77
2021/08/24 06:50:27;;;;;;;;;;;;;;;34.74;19.68;99441.63;5072700;28;19928;-77
2021/08/24 06:52:53;;;;;;;;;;;;;;;34.89;19.11;99436.06;5039282;28;19935;-77
2021/08/24 06:55:19;;;;;;;;;;;;;;;35.14;18.92;99435.22;5055449;28;20399;-77
2021/08/24 06:57:45;;;;;;;;;;;;;;;35.39;18.91;99439.81;5039287;28;20411;-77
2021/08/24 07:00:15;;;;;;;;;;;;;;;35.65;18.18;99435.03;5038955;28;19924;-76
2021/08/24 07:02:41;;;;;;;;;;;;;;;35.42;18.02;99444.81;5055883;28;19928;-78
2021/08/24 07:05:07;;;;;;;;;;;;;;;35.36;18.40;99443.19;5072929;28;20399;-76
2021/08/24 07:07:35;;;;;;;;;;;;;;;35.33;18.51;99431.81;5055534;28;19931;-77
2021/08/24 07:10:04;;;;;;;;;;;;;;;35.35;18.60;99438.75;5055756;28;19938;-77
2021/08/24 07:12:29;;;;;;;;;;;;;;;35.43;17.82;99426.19;5055466;28;20379;-76
2021/08/24 07:14:55;;;;;;;;;;;;;;;35.60;17.92;99426.72;5071764;28;19931;-76
2021/08/24 07:17:23;;;;;;;;;;;;;;;35.72;18.02;99429.16;5073362;28;20399;-77
2021/08/24 07:19:49;;;;;;;;;;;;;;;35.94;18.05;99423.19;5039107;28;20019;-77
2021/08/24 07:22:15;;;;;;;;;;;;;;;36.06;18.04;99434.81;5072242;28;19924;-76
2021/08/24 07:24:41;;;;;;;;;;;;;;;36.11;17.77;99425.59;5072202;28;20280;-76
2021/08/24 07:27:07;;;;;;;;;;;;;;;36.32;17.74;99413.19;5071784;28;19994;-76
2021/08/24 07:29:33;;;;;;;;;;;;;;;36.42;17.64;99409.50;5071863;28;20851;-77
2021/08/24 07:31:59;;;;;;;;;;;;;;;36.60;17.87;99419.13;5072033;28;19925;-76
2021/08/24 07:34:24;;;;;;;;;;;;;;;36.40;17.22;99404.22;5055739;28;19925;-76
2021/08/24 07:36:50;;;;;;;;;;;;;;;36.59;17.42;99403.53;5071833;28;20279;-77
2021/08/24 07:39:16;;;;;;;;;;;;;;;36.79;17.16;99414.47;5072187;28;19924;-77
2021/08/24 07:41:41;;;;;;;;;;;;;;;36.76;17.13;99408.66;5071897;28;19931;-76
2021/08/24 07:44:07;;;;;;;;;;;;;;;36.89;17.19;99402.38;5071673;28;20424;-77
2021/08/24 07:46:33;;;;;;;;;;;;;;;36.95;17.04;99407.66;5055350;28;19924;-77
2021/08/24 07:48:59;;;;;;;;;;;;;;;37.23;17.29;99405.09;5038428;28;19924;-77
2021/08/24 07:51:25;;;;;;;;;;;;;;;37.17;17.37;99398.75;5054719;28;19925;-76
2021/08/24 07:53:50;;;;;;;;;;;;;;;37.24;17.48;99406.78;5071606;28;19935;-76
2021/08/24 07:56:16;;;;;;;;;;;;;;;37.25;17.08;99410.38;5054735;28;19972;-76
2021/08/24 07:58:43;;;;;;;;;;;;;;;37.42;17.15;99400.41;5058468;28;19968;-77
2021/08/24 08:01:09;;;;;;;;;;;;;;;37.54;16.84;99401.94;5059456;28;19925;-76
2021/08/24 08:03:34;;;;;;;;;;;;;;;37.50;16.67;99404.53;5042055;28;19924;-76
2021/08/24 08:06:01;;;;;;;;;;;;;;;37.52;16.49;99404.22;5058947;28;19947;-76
2021/08/24 08:08:27;;;;;;;;;;;;;;;37.63;16.75;99402.94;5075363;28;19974;-75
2021/08/24 08:10:56;;;;;;;;;;;;;;;37.67;16.80;99396.44;5042011;28;19929;-77
2021/08/24 08:13:23;;;;;;;;;;;;;;;37.75;16.64;99400.53;5042615;28;19950;-76
2021/08/24 08:15:49;;;;;;;;;;;;;;;37.97;16.50;99399.13;5075200;28;20407;-76
2021/08/24 08:18:14;;;;;;;;;;;;;;;37.84;16.44;99401.53;5058423;28;19951;-76
2021/08/24 08:20:40;;;;;;;;;;;;;;;37.85;16.19;99392.03;5074842;28;19947;-76
2021/08/24 08:23:07;;;;;;;;;;;;;;;38.03;16.43;99393.19;5058402;28;20023;-76
2021/08/24 08:25:33;;;;;;;;;;;;;;;38.10;16.40;99387.19;5058257;28;19932;-77
2021/08/24 08:28:00;;;;;;;;;;;;;;;38.02;16.20;99390.66;5058312;28;19939;-77
2021/08/24 08:30:26;;;;;;;;;;;;;;;38.12;16.61;99384.94;5075076;28;19924;-76
2021/08/24 08:32:51;;;;;;;;;;;;;;;38.38;16.29;99372.22;5058564;28;19924;-75
2021/08/24 08:35:18;;;;;;;;;;;;;;;38.72;16.19;99373.84;5057809;28;19951;-76
2021/08/24 08:37:44;;;;;;;;;;;;;;;38.53;16.21;99378.69;5075842;28;20387;-76
2021/08/24 08:40:12;;;;;;;;;;;;;;;38.54;16.20;99367.19;5057998;28;19924;-76
2021/08/24 08:42:58;;;;;;;;;;;;;;;38.67;16.11;99368.38;5041708;28;19932;-76
2021/08/24 08:45:44;;;;;;;;;;;;;;;39.02;15.86;99366.03;5074401;28;19924;-77
2021/08/24 08:48:29;;;;;;;;;;;;;;;39.05;15.84;99362.63;5057653;28;19924;-76
2021/08/24 08:51:00;;;;;;;;;;;;;;;39.10;15.83;99365.31;5075082;28;20344;-76
2021/08/24 08:53:32;;;;;;;;;;;;;;;39.24;15.98;99359.75;5057896;28;19932;-75
2021/08/24 08:56:01;;;;;;;;;;;;;;;39.49;15.64;99361.16;5057629;28;19924;-76
2021/08/24 08:58:45;;;;;;;;;;;;;;;39.37;15.80;99355.28;5041092;28;20474;-77
2021/08/24 09:01:37;;;;;;;;;;;;;;;39.51;15.56;99356.91;5074254;28;20023;-76
2021/08/24 09:04:06;;;;;;;;;;;;;;;39.59;15.35;99349.75;5058882;28;20392;-75
2021/08/24 09:06:32;;;;;;;;;;;;;;;39.60;15.30;99354.19;5040894;28;19924;-76
2021/08/24 09:08:58;;;;;;;;;;;;;;;39.75;14.95;99353.84;5040567;28;19978;-76
2021/08/24 09:11:25;;;;;;;;;;;;;;;39.27;15.57;99348.78;5040575;28;19924;-76
2021/08/24 09:13:52;;;;;;;;;;;;;;;39.29;15.70;99349.28;5057349;28;19925;-75
2021/08/24 09:16:26;;;;;;;;;;;;;;;39.46;14.93;99356.22;5024105;28;19924;-76
2021/08/24 09:19:00;;;;;;;;;;;;;;;39.16;15.25;99352.91;5074051;28;19928;-76
2021/08/24 09:21:27;;;;;;;;;;;;;;;39.03;15.30;99345.34;5057303;28;19932;-76
2021/08/24 09:23:53;;;;;;;;;;;;;;;39.41;15.30;99353.50;5073839;28;20372;-76
2021/08/24 09:26:39;;;;;;;;;;;;;;;39.77;15.04;99340.38;5057189;28;20386;-77
2021/08/24 09:29:05;;;;;;;;;;;;;;;39.49;15.14;99341.56;5057761;28;20375;-76
2021/08/24 09:31:31;;;;;;;;;;;;;;;39.19;15.19;99341.06;5073695;28;19931;-77
2021/08/24 09:33:57;;;;;;;;;;;;;;;39.36;15.39;99339.66;5073483;28;19963;-77
2021/08/24 09:36:25;;;;;;;;;;;;;;;39.62;14.73;99337.91;5057055;28;19928;-76
2021/08/24 09:38:52;;;;;;;;;;;;;;;39.55;14.93;99326.34;5057514;28;19976;-76
2021/08/24 09:41:23;;;;;;;;;;;;;;;39.73;14.54;99333.78;5073638;28;19924;-75
2021/08/24 09:43:54;;;;;;;;;;;;;;;39.96;14.12;99322.59;5056985;28;19924;-78
2021/08/24 09:46:20;;;;;;;;;;;;;;;40.30;14.02;99320.03;5073767;28;20390;-76
2021/08/24 09:48:47;;;;;;;;;;;;;;;40.59;14.01;99326.34;5040297;28;20015;-76
2021/08/24 09:51:26;;;;;;;;;;;;;;;41.05;13.45;99313.84;5057872;28;19924;-76
2021/08/24 09:53:53;;;;;;;;;;;;;;;41.16;13.79;99315.19;5057175;28;19924;-77
2021/08/24 09:56:20;;;;;;;;;;;;;;;41.34;13.23;99319.66;5023493;28;19931;-76
2021/08/24 09:58:46;;;;;;;;;;;;;;;41.49;12.94;99318.41;5056714;28;20307;-75
2021/08/24 10:01:15;;;;;;;;;;;;;;;41.58;13.24;99319.22;5040043;28;19924;-76
2021/08/24 10:03:42;;;;;;;;;;;;;;;41.70;13.18;99305.34;5073141;28;19943;-76
2021/08/24 10:06:46;;;;;;;;;;;;;;;41.67;13.20;99300.38;5023459;28;19931;-76
2021/08/24 10:09:12;;;;;;;;;;;;;;;41.97;12.96;99309.81;5051758;28;19925;-76
2021/08/24 10:11:38;;;;;;;;;;;;;;;42.31;12.23;99307.28;5035444;28;19924;-76
2021/08/24 10:14:18;;;;;;;;;;;;;;;42.43;12.36;99304.63;5034311;28;19947;-76
2021/08/24 10:16:44;;;;;;;;;;;;;;;42.44;12.32;99298.66;5056194;28;19931;-76
2021/08/24 10:19:26;;;;;;;;;;;;;;;42.89;12.72;99311.41;5039119;28;19931;-75
2021/08/24 10:21:53;;;;;;;;;;;;;;;43.30;12.18;99309.88;5056477;28;20280;-76
2021/08/24 10:24:24;;;;;;;;;;;;;;;43.47;12.05;99298.50;5056280;28;19939;-77
2021/08/24 10:26:52;;;;;;;;;;;;;;;43.58;11.65;99299.75;5056750;28;20383;-76
2021/08/24 10:29:18;;;;;;;;;;;;;;;42.68;11.62;99300.91;5072722;28;19924;-76
2021/08/24 10:31:46;;;;;;;;;;;;;;;42.86;11.86;99306.47;5056030;28;20007;-77
2021/08/24 10:34:13;;;;;;;;;;;;;;;43.19;11.73;99303.00;5056170;28;19924;-76
2021/08/24 10:36:43;;;;;;;;;;;;;;;43.55;11.60;99300.41;5055594;28;19928;-76
2021/08/24 10:39:25;;;;;;;;;;;;;;;43.91;11.44;99299.00;5055954;28;20018;-75
2021/08/24 10:42:02;;;;;;;;;;;;;;;44.00;11.13;99290.44;5039314;28;19924;-76
2021/08/24 10:44:28;;;;;;;;;;;;;;;43.55;11.07;99297.59;5039349;28;20009;-75
2021/08/24 10:47:00;;;;;;;;;;;;;;;42.92;11.50;99302.31;5055943;28;19932;-75
2021/08/24 10:49:26;;;;;;;;;;;;;;;43.14;11.38;99295.56;5055646;28;19969;-75
2021/08/24 10:51:56;;;;;;;;;;;;;;;43.59;11.07;99292.94;5056158;28;19928;-76
2021/08/24 10:54:25;;;;;;;;;;;;;;;43.05;11.19;99295.59;5055701;28;19924;-76
2021/08/24 10:56:53;;;;;;;;;;;;;;;43.40;11.01;99284.94;5072054;28;19978;-76
2021/08/24 10:59:18;;;;;;;;;;;;;;;43.59;10.37;99292.13;5055489;28;20366;-75
2021/08/24 11:01:54;;;;;;;;;;;;;;;43.30;11.14;99298.63;5039067;28;19938;-76
2021/08/24 11:04:26;;;;;;;;;;;;;;;43.22;11.05;99285.41;5073744;28;19996;-76
2021/08/24 11:07:01;;;;;;;;;;;;;;;43.23;11.00;99287.09;5056138;28;19931;-77
2021/08/24 11:09:33;;;;;;;;;;;;;;;43.05;11.26;99281.53;5056466;28;19928;-76
2021/08/24 11:11:59;;;;;;;;;;;;;;;43.57;11.07;99272.78;5055290;28;19931;-76
2021/08/24 11:14:36;;;;;;;;;;;;;;;44.09;10.73;99280.75;5055710;28;20022;-76
2021/08/24 11:17:16;;;;;;;;;;;;;;;44.14;10.62;99270.41;5039559;28;19935;-76
2021/08/24 11:19:45;;;;;;;;;;;;;;;43.15;10.90;99278.38;5039736;28;20407;-75
2021/08/24 11:22:13;;;;;;;;;;;;;;;43.29;10.76;99275.25;5038434;28;20015;-76
2021/08/24 11:24:42;;;;;;;;;;;;;;;43.94;10.64;99272.13;5055604;28;20035;-75
2021/08/24 11:27:27;;;;;;;;;;;;;;;44.41;10.78;99268.97;5038757;28;19990;-76
2021/08/24 11:30:00;;;;;;;;;;;;;;;44.41;10.29;99261.34;5072081;28;19928;-76
2021/08/24 11:32:35;;;;;;;;;;;;;;;43.12;10.91;99256.53;5055328;28;19931;-74
2021/08/24 11:35:07;;;;;;;;;;;;;;;43.69;10.88;99262.72;5057943;28;19974;-76
2021/08/24 11:37:37;;;;;;;;;;;;;;;43.44;11.03;99270.19;5058501;28;20022;-76
2021/08/24 11:40:08;;;;;;;;;;;;;;;43.16;11.33;99273.56;5041730;28;19924;-77
2021/08/24 11:42:37;;;;;;;;;;;;;;;42.22;11.69;99265.16;5058717;28;19924;-75
2021/08/24 11:45:03;;;;;;;;;;;;;;;41.86;12.57;99271.19;5075011;28;19959;-75
2021/08/24 11:47:35;;;;;;;;;;;;;;;40.94;12.90;99260.84;5058854;28;20389;-75
2021/08/24 11:50:05;;;;;;;;;;;;;;;40.79;13.00;99255.69;5058023;28;20023;-76
2021/08/24 11:52:48;;;;;;;;;;;;;;;40.57;13.15;99255.78;5041829;28;20391;-76
2021/08/24 11:55:17;;;;;;;;;;;;;;;40.42;13.41;99257.00;5042261;28;19930;-75
2021/08/24 11:58:01;;;;;;;;;;;;;;;40.23;13.38;99254.44;5057988;28;19931;-76
2021/08/24 12:00:27;;;;;;;;;;;;;;;40.23;13.65;99271.25;5075307;28;19935;-76
2021/08/24 12:02:53;;;;;;;;;;;;;;;39.74;15.68;99290.66;5057835;28;19976;-76
2021/08/24 12:05:27;;;;;;;;;;;;;;;38.75;18.41;99292.22;5057592;28;19924;-75
2021/08/24 12:07:54;;;;;;;;;;;;;;;38.38;18.45;99299.63;5058176;28;20014;-75
2021/08/24 12:10:27;;;;;;;;;;;;;;;37.37;18.19;99263.84;5058100;28;19924;-76
2021/08/24 12:12:58;;;;;;;;;;;;;;;37.35;18.33;99252.19;5058045;28;20378;-76
2021/08/24 12:15:52;;;;;;;;;;;;;;;36.77;18.73;99251.56;5041024;28;20098;-76
2021/08/24 12:18:17;;;;;;;;;;;;;;;36.24;20.47;99235.69;5057261;28;19932;-76
2021/08/24 12:20:54;;;;;;;;;;;;;;;36.37;20.59;99251.72;5057587;28;19923;-76
2021/08/24 12:23:33;;;;;;;;;;;;;;;36.94;20.83;99249.13;5041203;28;20365;-76
2021/08/24 12:25:59;;;;;;;;;;;;;;;37.42;20.86;99249.84;5041399;28;19924;-75
2021/08/24 12:28:25;;;;;;;;;;;;;;;37.96;20.68;99241.22;5074713;28;19947;-75
2021/08/24 12:31:00;;;;;;;;;;;;;;;39.40;18.85;99245.59;5074320;28;19971;-75
2021/08/24 12:33:32;;;;;;;;;;;;;;;40.35;17.53;99237.03;5092276;28;19924;-75
2021/08/24 12:35:59;;;;;;;;;;;;;;;39.66;18.38;99227.03;5073956;28;19928;-77
2021/08/24 12:38:41;;;;;;;;;;;;;;;39.04;18.87;99232.38;5057699;28;20007;-76
2021/08/24 12:41:07;;;;;;;;;;;;;;;39.20;19.21;99230.91;5074164;28;19928;-77
2021/08/24 12:43:37;;;;;;;;;;;;;;;40.89;18.16;99234.94;5042281;28;20482;-76
2021/08/24 12:46:18;;;;;;;;;;;;;;;42.10;16.26;99237.78;5044428;28;19938;-76
2021/08/24 12:49:03;;;;;;;;;;;;;;;43.12;15.13;99230.41;5077632;28;19927;-76
2021/08/24 12:51:29;;;;;;;;;;;;;;;43.46;15.14;99229.28;5061333;28;19999;-75
2021/08/24 12:53:58;;;;;;;;;;;;;;;43.73;14.24;99229.91;5061132;28;20421;-75
2021/08/24 12:56:35;;;;;;;;;;;;;;;43.59;13.30;99219.75;5044102;28;20337;-75